Time;durP1;ratioP1;P1;durP2;ratioP2;P2;SDS_P1;SDS_P2;PMS_P1;PMS_P2;Temp;Humidity;BMP_temperature;BMP_pressure;BME280_temperature;BME280_humidity;BME280_pressure;Samples;Min_cycle;Max_cycle;Signal;HPM_P1;HPM_P2
2024/01/12 00:00:14;;;;;;;10.05;5.22;;;;;;;;;;5883845;28;20051;-77
2024/01/12 00:03:05;;;;;;;11.43;6.47;;;;;;;;;;5884180;28;20044;-77
2024/01/12 00:05:56;;;;;;;13.27;4.38;;;;;;;;;;5900842;28;20124;-77
2024/01/12 00:08:47;;;;;;;7.47;5.07;;;;;;;;;;5884157;28;20037;-77
2024/01/12 00:11:38;;;;;;;8.00;5.55;;;;;;;;;;5884134;28;20044;-77
2024/01/12 00:14:29;;;;;;;19.20;5.55;;;;;;;;;;5885251;28;20124;-77
2024/01/12 00:17:20;;;;;;;21.77;5.22;;;;;;;;;;5885292;28;20053;-78
2024/01/12 00:20:11;;;;;;;6.90;5.57;;;;;;;;;;5887199;28;20049;-77
2024/01/12 00:23:02;;;;;;;18.67;6.10;;;;;;;;;;5888060;28;20051;-77
2024/01/12 00:25:59;;;;;;;10.95;4.78;;;;;;;;;;5888536;28;20533;-77
2024/01/12 00:28:50;;;;;;;13.07;5.43;;;;;;;;;;5888363;28;20045;-77
2024/01/12 00:31:41;;;;;;;6.35;3.88;;;;;;;;;;5887692;28;20198;-77
2024/01/12 00:34:32;;;;;;;13.45;5.20;;;;;;;;;;5871313;28;20079;-77
2024/01/12 00:37:23;;;;;;;11.90;5.72;;;;;;;;;;5904248;28;20399;-77
2024/01/12 00:40:14;;;;;;;6.80;4.85;;;;;;;;;;5887457;28;20057;-77
2024/01/12 00:43:04;;;;;;;12.02;4.82;;;;;;;;;;5871056;28;20510;-77
2024/01/12 00:45:55;;;;;;;6.65;3.88;;;;;;;;;;5888063;28;20048;-77
2024/01/12 00:48:46;;;;;;;7.55;4.90;;;;;;;;;;5887278;28;20411;-77
2024/01/12 00:51:37;;;;;;;12.27;4.57;;;;;;;;;;5887008;28;20110;-77
2024/01/12 00:54:28;;;;;;;12.75;4.82;;;;;;;;;;5886963;28;20041;-77
2024/01/12 00:57:19;;;;;;;9.73;6.70;;;;;;;;;;5888070;28;20049;-77
2024/01/12 01:00:10;;;;;;;9.77;5.43;;;;;;;;;;5888113;28;20360;-77
2024/01/12 01:03:06;;;;;;;7.40;4.32;;;;;;;;;;5884877;28;20491;-77
2024/01/12 01:05:56;;;;;;;10.90;4.72;;;;;;;;;;5864794;28;20049;-77
2024/01/12 01:08:48;;;;;;;10.65;5.10;;;;;;;;;;5863717;28;20041;-77
2024/01/12 01:11:39;;;;;;;6.43;3.58;;;;;;;;;;5863403;28;20095;-77
2024/01/12 01:14:29;;;;;;;11.43;5.53;;;;;;;;;;5864772;28;20045;-77
2024/01/12 01:17:20;;;;;;;10.68;4.97;;;;;;;;;;5864814;28;20075;-77
2024/01/12 01:20:11;;;;;;;6.57;3.53;;;;;;;;;;5863169;28;20053;-77
2024/01/12 01:23:03;;;;;;;6.90;5.07;;;;;;;;;;5863348;28;20048;-77
2024/01/12 01:25:54;;;;;;;11.70;4.80;;;;;;;;;;5879887;28;20057;-77
2024/01/12 01:28:44;;;;;;;10.25;5.97;;;;;;;;;;5864698;28;20048;-77
2024/01/12 01:31:35;;;;;;;5.00;3.47;;;;;;;;;;5862775;28;20073;-77
2024/01/12 01:34:26;;;;;;;10.93;5.15;;;;;;;;;;5864330;28;20048;-77
2024/01/12 01:37:17;;;;;;;12.77;6.20;;;;;;;;;;5863060;28;20125;-77
2024/01/12 01:40:08;;;;;;;10.35;5.10;;;;;;;;;;5862949;28;20495;-78
2024/01/12 01:43:09;;;;;;;8.38;4.13;;;;;;;;;;5863687;28;20045;-77
2024/01/12 01:46:00;;;;;;;12.30;4.22;;;;;;;;;;5864371;28;20126;-77
2024/01/12 01:48:52;;;;;;;14.00;4.78;;;;;;;;;;5864382;28;20045;-77
2024/01/12 01:51:42;;;;;;;5.38;3.75;;;;;;;;;;5862767;28;20041;-77
2024/01/12 01:54:34;;;;;;;8.30;5.55;;;;;;;;;;5862821;28;20045;-77
2024/01/12 01:57:28;;;;;;;10.52;4.68;;;;;;;;;;5862513;28;20057;-77
2024/01/12 02:00:19;;;;;;;6.00;4.47;;;;;;;;;;5862601;28;20384;-77
2024/01/12 02:03:10;;;;;;;5.22;3.83;;;;;;;;;;5878842;28;20051;-77
2024/01/12 02:06:01;;;;;;;5.63;4.25;;;;;;;;;;5862329;28;20049;-77
2024/01/12 02:08:52;;;;;;;9.07;3.95;;;;;;;;;;5862994;28;20052;-77
2024/01/12 02:11:43;;;;;;;8.65;3.95;;;;;;;;;;5862376;28;20072;-77
2024/01/12 02:14:34;;;;;;;5.45;3.80;;;;;;;;;;5862525;28;20066;-77
2024/01/12 02:17:25;;;;;;;5.70;3.28;;;;;;;;;;5856700;28;20094;-77
2024/01/12 02:20:16;;;;;;;5.13;3.40;;;;;;;;;;5862401;28;20487;-77
2024/01/12 02:23:07;;;;;;;6.03;3.65;;;;;;;;;;5862105;28;20045;-77
2024/01/12 02:25:58;;;;;;;5.85;3.47;;;;;;;;;;5862558;28;20387;-77
2024/01/12 02:28:49;;;;;;;5.25;2.95;;;;;;;;;;5862053;28;20053;-77
2024/01/12 02:31:40;;;;;;;9.20;3.78;;;;;;;;;;5861767;28;20046;-77
2024/01/12 02:34:30;;;;;;;4.75;3.25;;;;;;;;;;5861952;28;20053;-77
2024/01/12 02:37:21;;;;;;;8.15;3.95;;;;;;;;;;5862988;28;20050;-77
2024/01/12 02:40:12;;;;;;;9.27;4.05;;;;;;;;;;5861568;28;20052;-77
2024/01/12 02:43:03;;;;;;;7.65;3.38;;;;;;;;;;5877601;28;20052;-77
2024/01/12 02:45:54;;;;;;;11.52;3.97;;;;;;;;;;5863131;28;20126;-77
2024/01/12 02:48:44;;;;;;;6.35;4.43;;;;;;;;;;5863209;28;20041;-77
2024/01/12 02:51:35;;;;;;;6.07;4.30;;;;;;;;;;5861591;28;20113;-78
2024/01/12 02:54:26;;;;;;;9.55;4.53;;;;;;;;;;5861760;28;20049;-77
2024/01/12 02:57:17;;;;;;;5.20;3.80;;;;;;;;;;5861477;28;20050;-77
2024/01/12 03:00:09;;;;;;;10.02;4.63;;;;;;;;;;5861563;28;20052;-77
2024/01/12 03:03:00;;;;;;;5.75;3.08;;;;;;;;;;5862079;28;20057;-77
2024/01/12 03:05:51;;;;;;;11.52;4.82;;;;;;;;;;5878145;28;20060;-77
2024/01/12 03:08:42;;;;;;;7.20;3.38;;;;;;;;;;5861482;28;20038;-77
2024/01/12 03:11:32;;;;;;;11.77;4.93;;;;;;;;;;5861397;28;20041;-77
2024/01/12 03:14:23;;;;;;;5.88;3.47;;;;;;;;;;5877684;28;20131;-77
2024/01/12 03:17:14;;;;;;;8.48;4.18;;;;;;;;;;5861263;28;20059;-77
2024/01/12 03:20:07;;;;;;;6.07;3.53;;;;;;;;;;5861333;28;20048;-77
2024/01/12 03:22:58;;;;;;;10.57;2.67;;;;;;;;;;5861809;28;20049;-77
2024/01/12 03:25:49;;;;;;;5.60;4.45;;;;;;;;;;5862311;28;20480;-77
2024/01/12 03:28:40;;;;;;;3.78;2.65;;;;;;;;;;5862621;28;20038;-77
2024/01/12 03:31:31;;;;;;;8.25;4.53;;;;;;;;;;5877576;28;20579;-77
2024/01/12 03:34:22;;;;;;;5.57;4.15;;;;;;;;;;5861240;28;20049;-77
2024/01/12 03:37:13;;;;;;;3.25;2.30;;;;;;;;;;5861041;28;20132;-77
2024/01/12 03:40:04;;;;;;;15.43;3.80;;;;;;;;;;5861083;28;20054;-78
2024/01/12 03:42:55;;;;;;;7.32;3.22;;;;;;;;;;5861298;28;20041;-77
2024/01/12 03:45:46;;;;;;;6.97;3.22;;;;;;;;;;5860729;28;20044;-77
2024/01/12 03:48:37;;;;;;;9.98;3.45;;;;;;;;;;5860931;28;20533;-77
2024/01/12 03:51:27;;;;;;;7.55;3.65;;;;;;;;;;5860713;28;20450;-77
2024/01/12 03:54:18;;;;;;;11.02;3.53;;;;;;;;;;5862969;28;20072;-77
2024/01/12 03:57:09;;;;;;;5.10;3.60;;;;;;;;;;5865031;28;20045;-77
2024/01/12 04:00:00;;;;;;;6.18;3.60;;;;;;;;;;5881958;28;20056;-77
2024/01/12 04:02:51;;;;;;;10.02;4.82;;;;;;;;;;5866475;28;20499;-77
2024/01/12 04:05:42;;;;;;;8.35;3.88;;;;;;;;;;5866231;28;20510;-77
2024/01/12 04:08:33;;;;;;;8.45;4.60;;;;;;;;;;5881236;28;20053;-77
2024/01/12 04:11:24;;;;;;;11.57;6.53;;;;;;;;;;5864717;28;20042;-78
2024/01/12 04:14:15;;;;;;;13.13;7.40;;;;;;;;;;5864724;28;20049;-77
2024/01/12 04:17:06;;;;;;;9.88;5.70;;;;;;;;;;5866033;28;20385;-77
2024/01/12 04:19:56;;;;;;;6.15;4.72;;;;;;;;;;5865117;28;20045;-77
2024/01/12 04:22:47;;;;;;;14.77;6.68;;;;;;;;;;5864668;28;20041;-77
2024/01/12 04:25:38;;;;;;;18.05;9.55;;;;;;;;;;5864499;28;20412;-77
2024/01/12 04:28:29;;;;;;;11.98;5.57;;;;;;;;;;5864855;28;20052;-77
2024/01/12 04:31:19;;;;;;;4.10;2.50;;;;;;;;;;5881192;28;20049;-77
2024/01/12 04:34:11;;;;;;;5.93;3.72;;;;;;;;;;5864841;28;20046;-77
2024/01/12 04:37:02;;;;;;;6.47;2.85;;;;;;;;;;5864505;28;20046;-77
2024/01/12 04:39:53;;;;;;;9.10;3.88;;;;;;;;;;5865010;28;20045;-77
2024/01/12 04:42:43;;;;;;;7.15;3.17;;;;;;;;;;5865580;28;20054;-78
2024/01/12 04:45:34;;;;;;;8.60;4.45;;;;;;;;;;5864477;28;20053;-77
2024/01/12 04:48:25;;;;;;;7.93;4.78;;;;;;;;;;5864331;28;20045;-78
2024/01/12 04:51:16;;;;;;;3.95;2.88;;;;;;;;;;5865440;28;20522;-77
2024/01/12 04:54:07;;;;;;;17.67;10.30;;;;;;;;;;5863948;28;20049;-77
2024/01/12 04:56:58;;;;;;;54.72;28.42;;;;;;;;;;5864405;28;20059;-77
2024/01/12 04:59:49;;;;;;;32.13;15.95;;;;;;;;;;5863891;28;20049;-77
2024/01/12 05:02:40;;;;;;;46.20;12.48;;;;;;;;;;5863740;28;20048;-77
2024/01/12 05:05:31;;;;;;;53.17;11.88;;;;;;;;;;5864655;28;20045;-77
2024/01/12 05:08:22;;;;;;;21.00;6.55;;;;;;;;;;5865117;28;20486;-77
2024/01/12 05:11:14;;;;;;;30.10;8.70;;;;;;;;;;5863627;28;20504;-77
2024/01/12 05:14:05;;;;;;;26.15;8.07;;;;;;;;;;5863757;28;20697;-77
2024/01/12 05:16:56;;;;;;;48.50;11.48;;;;;;;;;;5864006;28;20569;-77
2024/01/12 05:19:47;;;;;;;33.55;9.10;;;;;;;;;;5863543;28;20064;-77
2024/01/12 05:22:38;;;;;;;22.13;5.78;;;;;;;;;;5863316;28;20411;-77
2024/01/12 05:25:29;;;;;;;9.48;3.83;;;;;;;;;;5863311;28;20452;-77
2024/01/12 05:28:20;;;;;;;11.15;3.70;;;;;;;;;;5864555;28;20076;-77
2024/01/12 05:31:11;;;;;;;18.92;2.83;;;;;;;;;;5863478;28;20045;-77
2024/01/12 05:34:02;;;;;;;31.90;9.23;;;;;;;;;;5863261;28;20049;-77
2024/01/12 05:36:53;;;;;;;27.52;7.38;;;;;;;;;;5880236;28;20045;-77
2024/01/12 05:39:44;;;;;;;20.67;7.90;;;;;;;;;;5863074;28;20045;-77
2024/01/12 05:42:35;;;;;;;25.50;9.27;;;;;;;;;;5863096;28;20056;-77
2024/01/12 05:45:26;;;;;;;8.68;2.80;;;;;;;;;;5862886;28;20050;-77
2024/01/12 05:48:17;;;;;;;14.93;4.88;;;;;;;;;;5862987;28;20053;-77
2024/01/12 05:51:08;;;;;;;7.05;4.05;;;;;;;;;;5879266;28;20060;-77
2024/01/12 05:53:59;;;;;;;23.13;10.10;;;;;;;;;;5864582;28;20482;-77
2024/01/12 05:56:50;;;;;;;33.60;15.50;;;;;;;;;;5862896;28;20037;-77
2024/01/12 05:59:41;;;;;;;37.38;13.25;;;;;;;;;;5863797;28;20406;-77
2024/01/12 06:02:32;;;;;;;22.75;9.70;;;;;;;;;;5864273;28;20491;-77
2024/01/12 06:05:22;;;;;;;14.50;7.18;;;;;;;;;;5864547;28;20632;-77
2024/01/12 06:08:14;;;;;;;19.75;3.97;;;;;;;;;;5862764;28;20546;-77
2024/01/12 06:11:05;;;;;;;16.27;3.97;;;;;;;;;;5862454;28;20052;-77
2024/01/12 06:13:55;;;;;;;27.13;6.32;;;;;;;;;;5864293;28;20496;-77
2024/01/12 06:16:46;;;;;;;31.23;7.95;;;;;;;;;;5863178;28;20037;-77
2024/01/12 06:19:37;;;;;;;10.07;4.53;;;;;;;;;;5863590;28;20041;-77
2024/01/12 06:22:28;;;;;;;18.65;4.43;;;;;;;;;;5863228;28;20041;-77
2024/01/12 06:25:19;;;;;;;20.02;6.38;;;;;;;;;;5864114;28;20049;-77
2024/01/12 06:28:10;;;;;;;22.23;6.63;;;;;;;;;;5863366;28;20056;-77
2024/01/12 06:31:01;;;;;;;16.90;4.68;;;;;;;;;;5861776;28;20516;-77
2024/01/12 06:33:52;;;;;;;4.95;3.25;;;;;;;;;;5862509;28;20420;-77
2024/01/12 06:36:43;;;;;;;7.40;3.40;;;;;;;;;;5878012;28;20038;-77
2024/01/12 06:39:34;;;;;;;12.85;3.85;;;;;;;;;;5861756;28;20044;-77
2024/01/12 06:42:25;;;;;;;6.88;3.15;;;;;;;;;;5861602;28;20046;-77
2024/01/12 06:45:16;;;;;;;7.97;2.65;;;;;;;;;;5861880;28;20049;-77
2024/01/12 06:48:06;;;;;;;3.28;1.85;;;;;;;;;;5863017;28;20052;-77
2024/01/12 06:50:57;;;;;;;13.05;2.83;;;;;;;;;;5861989;28;20052;-77
2024/01/12 06:53:48;;;;;;;5.82;2.90;;;;;;;;;;5861126;28;20065;-77
2024/01/12 06:56:39;;;;;;;18.42;5.30;;;;;;;;;;5861307;28;20041;-77
2024/01/12 06:59:30;;;;;;;6.68;3.83;;;;;;;;;;5861378;28;20049;-77
2024/01/12 07:02:21;;;;;;;8.85;3.65;;;;;;;;;;5877633;28;21019;-77
2024/01/12 07:05:13;;;;;;;10.52;2.92;;;;;;;;;;5860987;28;20052;-77
2024/01/12 07:08:04;;;;;;;8.40;3.35;;;;;;;;;;5861344;28;20065;-77
2024/01/12 07:10:55;;;;;;;9.88;2.42;;;;;;;;;;5861836;28;20053;-77
2024/01/12 07:13:46;;;;;;;14.20;2.92;;;;;;;;;;5861233;28;20077;-77
2024/01/12 07:16:38;;;;;;;14.18;7.32;;;;;;;;;;5862562;28;20041;-77
2024/01/12 07:19:28;;;;;;;12.57;5.22;;;;;;;;;;5877699;28;20053;-77
2024/01/12 07:22:19;;;;;;;8.38;2.95;;;;;;;;;;5861138;28;20065;-77
2024/01/12 07:25:11;;;;;;;6.57;3.95;;;;;;;;;;5862487;28;20049;-78
2024/01/12 07:28:03;;;;;;;18.92;7.25;;;;;;;;;;5863191;28;20560;-77
2024/01/12 07:30:54;;;;;;;15.95;6.72;;;;;;;;;;5867543;28;20188;-77
2024/01/12 07:33:45;;;;;;;8.30;5.10;;;;;;;;;;5882084;28;20045;-77
2024/01/12 07:36:37;;;;;;;11.95;4.50;;;;;;;;;;5865654;28;20144;-77
2024/01/12 07:39:28;;;;;;;25.40;4.13;;;;;;;;;;5865682;28;20041;-77
2024/01/12 07:42:19;;;;;;;2.25;1.83;;;;;;;;;;5865363;28;20415;-77
2024/01/12 07:45:12;;;;;;;2.75;1.83;;;;;;;;;;5865409;28;20046;-78
2024/01/12 07:48:04;;;;;;;5.60;3.25;;;;;;;;;;5865617;28;20466;-77
2024/01/12 07:50:54;;;;;;;10.57;4.03;;;;;;;;;;5867165;28;20049;-77
2024/01/12 07:53:45;;;;;;;11.63;6.40;;;;;;;;;;5865222;28;20049;-77
2024/01/12 07:56:36;;;;;;;12.23;5.93;;;;;;;;;;5865195;28;20525;-77
2024/01/12 07:59:27;;;;;;;24.48;12.32;;;;;;;;;;5865374;28;20039;-77
2024/01/12 08:02:18;;;;;;;17.50;8.13;;;;;;;;;;5865178;28;20067;-77
2024/01/12 08:05:09;;;;;;;15.43;4.43;;;;;;;;;;5866397;28;20072;-77
2024/01/12 08:08:00;;;;;;;7.18;3.63;;;;;;;;;;5865663;28;20364;-77
2024/01/12 08:10:51;;;;;;;11.95;5.43;;;;;;;;;;5866475;28;20449;-77
2024/01/12 08:13:42;;;;;;;9.32;4.63;;;;;;;;;;5864961;28;20041;-77
2024/01/12 08:16:32;;;;;;;16.27;4.93;;;;;;;;;;5864748;28;20049;-77
2024/01/12 08:19:23;;;;;;;17.33;4.90;;;;;;;;;;5864721;28;20045;-77
2024/01/12 08:22:15;;;;;;;19.88;7.35;;;;;;;;;;5880970;28;20538;-77
2024/01/12 08:25:06;;;;;;;13.35;6.00;;;;;;;;;;5864408;28;20060;-78
2024/01/12 08:27:57;;;;;;;15.13;7.82;;;;;;;;;;5865072;28;20050;-77
2024/01/12 08:30:48;;;;;;;13.48;5.40;;;;;;;;;;5864387;28;20046;-78
2024/01/12 08:33:39;;;;;;;20.42;6.65;;;;;;;;;;5864477;28;20041;-77
2024/01/12 08:36:30;;;;;;;5.82;4.25;;;;;;;;;;5864245;28;20044;-77
2024/01/12 08:39:21;;;;;;;10.32;4.32;;;;;;;;;;5863582;28;20492;-78
2024/01/12 08:42:12;;;;;;;7.57;3.17;;;;;;;;;;5864185;28;20068;-77
2024/01/12 08:45:04;;;;;;;5.35;1.85;;;;;;;;;;5864290;28;20052;-77
2024/01/12 08:47:57;;;;;;;5.38;3.38;;;;;;;;;;5864827;28;20041;-78
2024/01/12 08:50:48;;;;;;;8.90;4.38;;;;;;;;;;5864464;28;20087;-78
2024/01/12 08:53:39;;;;;;;2.47;2.22;;;;;;;;;;5864128;28;20038;-78
2024/01/12 08:56:30;;;;;;;11.60;3.05;;;;;;;;;;5880432;28;20045;-78
2024/01/12 08:59:22;;;;;;;15.40;6.43;;;;;;;;;;5865621;28;20094;-78
2024/01/12 09:02:14;;;;;;;9.80;4.55;;;;;;;;;;5863825;28;20088;-78
2024/01/12 09:05:06;;;;;;;7.22;2.88;;;;;;;;;;5863784;28;20114;-78
2024/01/12 09:07:57;;;;;;;4.72;2.75;;;;;;;;;;5864579;28;20049;-78
2024/01/12 09:10:48;;;;;;;5.20;2.63;;;;;;;;;;5864826;28;20056;-78
2024/01/12 09:13:39;;;;;;;5.43;2.55;;;;;;;;;;5863547;28;20041;-78
2024/01/12 09:16:30;;;;;;;2.45;1.83;;;;;;;;;;5863623;28;20049;-78
2024/01/12 09:19:21;;;;;;;1.98;1.52;;;;;;;;;;5864709;28;20059;-78
2024/01/12 09:22:12;;;;;;;8.88;2.67;;;;;;;;;;5863461;28;20049;-78
2024/01/12 09:25:03;;;;;;;3.22;2.25;;;;;;;;;;5863347;28;20037;-78
2024/01/12 09:27:57;;;;;;;4.88;2.17;;;;;;;;;;5863849;28;20046;-78
2024/01/12 09:30:48;;;;;;;5.28;2.50;;;;;;;;;;5864581;28;20045;-78
2024/01/12 09:33:38;;;;;;;3.88;2.03;;;;;;;;;;5863216;28;20045;-78
2024/01/12 09:36:29;;;;;;;3.67;2.58;;;;;;;;;;5846993;28;20038;-78
2024/01/12 09:39:20;;;;;;;12.95;4.32;;;;;;;;;;5864370;28;20068;-78
2024/01/12 09:42:15;;;;;;;3.63;1.42;;;;;;;;;;5864353;28;20045;-78
2024/01/12 09:45:06;;;;;;;6.60;3.80;;;;;;;;;;5862825;28;20052;-78
2024/01/12 09:48:00;;;;;;;10.82;6.15;;;;;;;;;;5864669;28;20037;-78
2024/01/12 09:50:55;;;;;;;3.50;1.73;;;;;;;;;;5879113;28;20415;-78
2024/01/12 09:53:46;;;;;;;8.48;3.55;;;;;;;;;;5862492;28;20423;-78
2024/01/12 09:56:38;;;;;;;8.32;2.58;;;;;;;;;;5863720;28;20119;-78
2024/01/12 09:59:37;;;;;;;3.22;2.05;;;;;;;;;;5862772;28;20096;-78
2024/01/12 10:02:28;;;;;;;9.30;3.95;;;;;;;;;;5862436;28;20164;-78
2024/01/12 10:05:19;;;;;;;3.42;2.20;;;;;;;;;;5862403;28;20060;-78
2024/01/12 10:08:10;;;;;;;8.70;2.25;;;;;;;;;;5862092;28;20061;-78
2024/01/12 10:11:01;;;;;;;9.77;3.38;;;;;;;;;;5862249;28;20049;-78
2024/01/12 10:13:52;;;;;;;6.07;2.28;;;;;;;;;;5862545;28;20049;-78
2024/01/12 10:16:42;;;;;;;3.17;2.83;;;;;;;;;;5862346;28;20041;-78
2024/01/12 10:19:34;;;;;;;8.77;4.13;;;;;;;;;;5862123;28;20048;-78
2024/01/12 10:22:25;;;;;;;8.68;4.50;;;;;;;;;;5862002;28;20084;-78
2024/01/12 10:25:16;;;;;;;10.27;4.72;;;;;;;;;;5861778;28;20041;-78
2024/01/12 10:28:07;;;;;;;7.88;5.75;;;;;;;;;;5861861;28;20068;-78
2024/01/12 10:31:03;;;;;;;9.25;5.32;;;;;;;;;;5862114;28;20045;-78
2024/01/12 10:33:59;;;;;;;9.52;4.72;;;;;;;;;;5862106;28;20040;-78
2024/01/12 10:36:58;;;;;;;8.13;4.28;;;;;;;;;;5861727;28;20045;-78
2024/01/12 10:39:50;;;;;;;6.40;3.13;;;;;;;;;;5861778;28;20038;-78
2024/01/12 10:42:55;;;;;;;10.85;5.60;;;;;;;;;;5861429;28;20045;-78
2024/01/12 10:45:53;;;;;;;3.55;3.25;;;;;;;;;;5861622;28;20056;-78
2024/01/12 10:48:49;;;;;;;;;;;;;;;;;;5862841;28;20049;-77
2024/01/12 10:52:26;;;;;;;4.05;3.10;;;;;;;;;;5861518;28;20002;-77
2024/01/12 10:55:21;;;;;;;3.83;3.35;;;;;;;;;;5861274;28;20056;-77
2024/01/12 10:58:11;;;;;;;2.00;1.75;;;;;;;;;;5862117;28;20679;-77
2024/01/12 11:01:02;;;;;;;4.60;2.58;;;;;;;;;;5861436;28;20052;-78
2024/01/12 11:03:54;;;;;;;5.20;4.70;;;;;;;;;;5862360;28;20053;-78
2024/01/12 11:06:48;;;;;;;10.02;3.53;;;;;;;;;;5861261;28;20051;-77
2024/01/12 11:09:40;;;;;;;6.05;2.17;;;;;;;;;;5877298;28;20038;-77
2024/01/12 11:12:36;;;;;;;5.88;3.25;;;;;;;;;;5862469;28;20128;-77
2024/01/12 11:15:27;;;;;;;7.13;3.28;;;;;;;;;;5861203;28;20049;-77
2024/01/12 11:18:19;;;;;;;1.85;1.38;;;;;;;;;;5860947;28;20076;-77
2024/01/12 11:21:11;;;;;;;5.32;3.20;;;;;;;;;;5861044;28;20045;-77
2024/01/12 11:24:02;;;;;;;5.95;2.70;;;;;;;;;;5862219;28;20497;-77
2024/01/12 11:26:53;;;;;;;3.03;2.45;;;;;;;;;;5861656;28;20077;-77
2024/01/12 11:29:44;;;;;;;2.88;2.08;;;;;;;;;;5860992;28;20119;-77
2024/01/12 11:32:37;;;;;;;7.22;4.05;;;;;;;;;;5860943;28;20041;-77
2024/01/12 11:35:31;;;;;;;7.38;3.33;;;;;;;;;;5860748;28;20064;-77
2024/01/12 11:38:22;;;;;;;2.00;1.45;;;;;;;;;;5860906;28;20682;-77
2024/01/12 11:41:13;;;;;;;2.40;1.88;;;;;;;;;;5860900;28;20503;-77
2024/01/12 11:44:04;;;;;;;6.38;2.83;;;;;;;;;;5862377;28;20393;-77
2024/01/12 11:46:55;;;;;;;8.48;3.58;;;;;;;;;;5861462;28;20049;-77
2024/01/12 11:49:46;;;;;;;6.60;3.63;;;;;;;;;;5860816;28;20037;-77
2024/01/12 11:52:37;;;;;;;4.15;2.70;;;;;;;;;;5860794;28;20560;-77
2024/01/12 11:55:28;;;;;;;2.55;2.25;;;;;;;;;;5860717;28;20049;-77
2024/01/12 11:58:19;;;;;;;2.60;1.73;;;;;;;;;;5860910;28;20053;-77
2024/01/12 12:01:10;;;;;;;6.43;1.42;;;;;;;;;;5860483;28;20499;-77
2024/01/12 12:04:01;;;;;;;10.45;2.30;;;;;;;;;;5876911;28;20419;-77
2024/01/12 12:06:52;;;;;;;3.95;2.97;;;;;;;;;;5860898;28;20056;-77
2024/01/12 12:09:46;;;;;;;1.95;1.85;;;;;;;;;;5860461;28;20045;-77
2024/01/12 12:12:37;;;;;;;8.40;3.58;;;;;;;;;;5860530;28;20049;-77
2024/01/12 12:15:28;;;;;;;9.35;4.18;;;;;;;;;;5879287;28;20041;-77
2024/01/12 12:18:19;;;;;;;7.15;2.92;;;;;;;;;;5864679;28;20053;-77
2024/01/12 12:21:11;;;;;;;5.75;2.25;;;;;;;;;;5865916;28;20048;-77
2024/01/12 12:24:02;;;;;;;3.85;2.25;;;;;;;;;;5864155;28;20045;-76
2024/01/12 12:26:53;;;;;;;2.35;1.85;;;;;;;;;;5848778;28;20103;-77
2024/01/12 12:29:44;;;;;;;10.48;2.00;;;;;;;;;;5864222;28;20052;-77
2024/01/12 12:32:38;;;;;;;2.13;1.92;;;;;;;;;;5863917;28;20099;-77
2024/01/12 12:35:29;;;;;;;4.32;2.13;;;;;;;;;;5864256;28;20195;-77
2024/01/12 12:38:22;;;;;;;2.28;1.20;;;;;;;;;;5880741;28;20060;-77
2024/01/12 12:41:13;;;;;;;2.95;2.10;;;;;;;;;;5864506;28;20045;-77
2024/01/12 12:44:04;;;;;;;1.90;1.80;;;;;;;;;;5864515;28;20046;-77
2024/01/12 12:46:55;;;;;;;1.67;1.48;;;;;;;;;;5866150;28;20045;-77
2024/01/12 12:49:46;;;;;;;10.13;4.45;;;;;;;;;;5865603;28;20045;-77
2024/01/12 12:52:39;;;;;;;26.70;6.45;;;;;;;;;;5864350;28;20049;-77
2024/01/12 12:55:30;;;;;;;13.35;6.05;;;;;;;;;;5863864;28;20410;-77
2024/01/12 12:58:22;;;;;;;6.10;3.78;;;;;;;;;;5847724;28;20058;-77
2024/01/12 13:01:14;;;;;;;1.65;1.55;;;;;;;;;;5864839;28;20048;-77
2024/01/12 13:04:05;;;;;;;6.20;2.17;;;;;;;;;;5864009;28;20053;-77
2024/01/12 13:06:57;;;;;;;9.95;2.75;;;;;;;;;;5864221;28;20048;-77
2024/01/12 13:09:51;;;;;;;2.38;1.67;;;;;;;;;;5865305;28;20042;-77
2024/01/12 13:12:46;;;;;;;2.15;1.63;;;;;;;;;;5864081;28;20037;-77
2024/01/12 13:15:38;;;;;;;1.63;1.52;;;;;;;;;;5864314;28;20053;-77
2024/01/12 13:18:28;;;;;;;5.85;2.13;;;;;;;;;;5860607;28;20045;-77
2024/01/12 13:21:20;;;;;;;4.93;2.78;;;;;;;;;;5863923;28;20122;-77
2024/01/12 13:24:11;;;;;;;5.28;1.88;;;;;;;;;;5863893;28;20128;-77
2024/01/12 13:27:03;;;;;;;4.32;2.58;;;;;;;;;;5863236;28;20412;-77
2024/01/12 13:29:54;;;;;;;6.60;2.88;;;;;;;;;;5864003;28;20103;-77
2024/01/12 13:32:45;;;;;;;4.05;3.22;;;;;;;;;;5863266;28;20586;-77
2024/01/12 13:35:36;;;;;;;12.60;4.07;;;;;;;;;;5862910;28;20060;-77
2024/01/12 13:38:27;;;;;;;19.92;7.20;;;;;;;;;;5862941;28;20168;-77
2024/01/12 13:41:19;;;;;;;6.65;5.25;;;;;;;;;;5879130;28;20053;-77
2024/01/12 13:44:10;;;;;;;14.13;4.85;;;;;;;;;;5862517;28;20130;-77
2024/01/12 13:47:01;;;;;;;11.05;2.65;;;;;;;;;;5863794;28;20419;-77
2024/01/12 13:49:53;;;;;;;3.85;2.78;;;;;;;;;;5846950;28;20065;-77
2024/01/12 13:52:45;;;;;;;6.40;3.38;;;;;;;;;;5862440;28;20084;-77
2024/01/12 13:55:37;;;;;;;14.38;5.63;;;;;;;;;;5878639;28;20049;-77
2024/01/12 13:58:27;;;;;;;9.20;4.20;;;;;;;;;;5878795;28;20056;-77
2024/01/12 14:01:18;;;;;;;14.63;4.35;;;;;;;;;;5862391;28;20146;-77
2024/01/12 14:04:11;;;;;;;2.88;2.17;;;;;;;;;;5861982;28;20056;-77
2024/01/12 14:07:02;;;;;;;10.27;4.95;;;;;;;;;;5862037;28;20049;-77
2024/01/12 14:09:53;;;;;;;10.55;6.13;;;;;;;;;;5862532;28;20060;-76
2024/01/12 14:12:44;;;;;;;18.60;8.70;;;;;;;;;;5861996;28;20442;-77
2024/01/12 14:15:37;;;;;;;9.20;5.70;;;;;;;;;;5861846;28;20103;-77
2024/01/12 14:18:27;;;;;;;8.38;4.13;;;;;;;;;;5861982;28;20041;-77
2024/01/12 14:21:19;;;;;;;5.32;3.60;;;;;;;;;;5861730;28;20052;-76
2024/01/12 14:24:10;;;;;;;9.80;4.68;;;;;;;;;;5878591;28;20128;-76
2024/01/12 14:27:04;;;;;;;13.55;4.80;;;;;;;;;;5861802;28;20095;-76
2024/01/12 14:29:55;;;;;;;10.55;4.25;;;;;;;;;;5862079;28;20049;-76
2024/01/12 14:32:46;;;;;;;3.53;2.55;;;;;;;;;;5878276;28;20046;-77
2024/01/12 14:35:37;;;;;;;4.97;3.92;;;;;;;;;;5861496;28;20053;-77
2024/01/12 14:38:28;;;;;;;9.80;3.85;;;;;;;;;;5861359;28;20077;-77
2024/01/12 14:41:19;;;;;;;3.53;3.15;;;;;;;;;;5877883;28;20053;-76
2024/01/12 14:44:10;;;;;;;6.38;4.68;;;;;;;;;;5877997;28;20046;-76
2024/01/12 14:47:01;;;;;;;11.85;4.30;;;;;;;;;;5861141;28;20443;-76
2024/01/12 14:49:52;;;;;;;7.15;2.80;;;;;;;;;;5861992;28;20042;-76
2024/01/12 14:52:43;;;;;;;6.13;3.08;;;;;;;;;;5860995;28;20112;-76
2024/01/12 14:55:34;;;;;;;7.78;2.70;;;;;;;;;;5861141;28;20049;-76
2024/01/12 14:58:26;;;;;;;3.20;1.42;;;;;;;;;;5861366;28;20057;-77
2024/01/12 15:01:18;;;;;;;7.07;3.95;;;;;;;;;;5862675;28;20053;-76
2024/01/12 15:04:10;;;;;;;15.00;9.07;;;;;;;;;;5877375;28;20099;-76
2024/01/12 15:07:10;;;;;;;22.35;11.02;;;;;;;;;;5863057;28;20045;-76
2024/01/12 15:10:02;;;;;;;24.02;7.75;;;;;;;;;;5861058;28;20046;-76
2024/01/12 15:12:53;;;;;;;14.20;5.78;;;;;;;;;;5861873;28;20504;-76
2024/01/12 15:15:45;;;;;;;14.07;3.78;;;;;;;;;;5861039;28;20037;-76
2024/01/12 15:18:35;;;;;;;12.00;4.05;;;;;;;;;;5861671;28;20045;-76
2024/01/12 15:21:30;;;;;;;5.45;2.80;;;;;;;;;;5862223;28;20172;-76
2024/01/12 15:24:21;;;;;;;6.53;2.08;;;;;;;;;;5861976;28;20447;-78
2024/01/12 15:27:12;;;;;;;5.45;3.42;;;;;;;;;;5860854;28;20045;-77
2024/01/12 15:30:06;;;;;;;27.20;9.90;;;;;;;;;;5862215;28;20045;-77
2024/01/12 15:32:58;;;;;;;25.02;9.90;;;;;;;;;;5861501;28;20053;-77
2024/01/12 15:35:49;;;;;;;37.72;14.15;;;;;;;;;;5860681;28;20423;-77
2024/01/12 15:38:40;;;;;;;31.83;12.05;;;;;;;;;;5861076;28;20041;-77
2024/01/12 15:41:31;;;;;;;35.03;11.63;;;;;;;;;;5861044;28;20042;-77
2024/01/12 15:44:22;;;;;;;30.25;11.63;;;;;;;;;;5845071;28;20041;-77
2024/01/12 15:47:13;;;;;;;25.92;12.43;;;;;;;;;;5877237;28;20069;-77
2024/01/12 15:50:04;;;;;;;33.45;13.38;;;;;;;;;;5865568;28;20053;-77
2024/01/12 15:52:57;;;;;;;16.80;9.07;;;;;;;;;;5865880;28;20046;-77
2024/01/12 15:55:48;;;;;;;19.10;10.25;;;;;;;;;;5865409;28;20049;-77
2024/01/12 15:58:39;;;;;;;21.25;9.10;;;;;;;;;;5865399;28;20041;-77
2024/01/12 16:01:30;;;;;;;12.57;7.15;;;;;;;;;;5865215;28;20056;-77
2024/01/12 16:04:20;;;;;;;17.25;7.10;;;;;;;;;;5867863;28;20864;-77
2024/01/12 16:07:11;;;;;;;25.52;6.32;;;;;;;;;;5865122;28;20045;-77
2024/01/12 16:10:03;;;;;;;15.13;7.35;;;;;;;;;;5866250;28;20045;-77
2024/01/12 16:12:57;;;;;;;28.27;7.10;;;;;;;;;;5865483;28;20045;-77
2024/01/12 16:15:48;;;;;;;14.32;7.50;;;;;;;;;;5865344;28;20060;-77
2024/01/12 16:18:41;;;;;;;28.58;8.50;;;;;;;;;;5864985;28;20420;-77
2024/01/12 16:21:35;;;;;;;21.70;8.15;;;;;;;;;;5864798;28;20499;-77
2024/01/12 16:24:26;;;;;;;9.13;5.07;;;;;;;;;;5865317;28;20124;-77
2024/01/12 16:27:17;;;;;;;24.92;7.63;;;;;;;;;;5865965;28;20049;-77
2024/01/12 16:30:08;;;;;;;7.47;3.47;;;;;;;;;;5864920;28;20450;-77
2024/01/12 16:32:59;;;;;;;10.57;6.25;;;;;;;;;;5881487;28;20570;-77
2024/01/12 16:35:50;;;;;;;12.77;5.25;;;;;;;;;;5864391;28;20144;-77
2024/01/12 16:38:41;;;;;;;13.20;5.32;;;;;;;;;;5863902;28;20042;-77
2024/01/12 16:41:33;;;;;;;10.27;4.28;;;;;;;;;;5864463;28;20123;-77
2024/01/12 16:44:30;;;;;;;6.15;3.42;;;;;;;;;;5864148;28;20052;-77
2024/01/12 16:47:21;;;;;;;4.82;3.00;;;;;;;;;;5864483;28;20060;-77
2024/01/12 16:50:12;;;;;;;12.57;4.88;;;;;;;;;;5867441;28;20514;-77
2024/01/12 16:53:06;;;;;;;7.60;3.60;;;;;;;;;;5865888;28;20135;-77
2024/01/12 16:55:57;;;;;;;12.13;5.80;;;;;;;;;;5864603;28;20044;-77
2024/01/12 16:58:48;;;;;;;10.07;5.13;;;;;;;;;;5865229;28;20618;-77